createdAt,value
2023-04-20T00:00:02.051Z,91.03
2023-04-20T00:02:28.759Z,91.43
2023-04-20T00:04:55.334Z,91.80
2023-04-20T00:07:21.920Z,91.75
2023-04-20T00:09:52.513Z,92.19
2023-04-20T00:12:20.567Z,92.79
2023-04-20T00:14:48.959Z,93.13
2023-04-20T00:17:20.526Z,92.28
2023-04-20T00:19:51.060Z,93.04
2023-04-20T00:22:21.811Z,92.49
2023-04-20T00:24:54.234Z,91.64
2023-04-20T00:27:22.993Z,91.54
2023-04-20T00:29:52.385Z,91.68
2023-04-20T00:32:21.721Z,91.65
2023-04-20T00:34:51.200Z,91.78
2023-04-20T00:37:17.702Z,91.97
2023-04-20T00:39:46.852Z,91.97
2023-04-20T00:42:19.680Z,92.06
2023-04-20T00:44:50.074Z,91.96
2023-04-20T00:47:23.922Z,91.67
2023-04-20T00:49:52.767Z,92.51
2023-04-20T00:52:19.650Z,94.20
2023-04-20T00:54:52.445Z,92.95
2023-04-20T00:57:22.158Z,92.98
2023-04-20T00:59:48.860Z,92.69
2023-04-20T01:02:20.868Z,91.88
2023-04-20T01:04:52.041Z,91.87
2023-04-20T01:07:24.342Z,92.50
2023-04-20T01:09:52.591Z,93.72
2023-04-20T01:12:19.137Z,93.61
2023-04-20T01:14:51.922Z,93.24
2023-04-20T01:17:18.601Z,93.27
2023-04-20T01:19:51.744Z,92.98
2023-04-20T01:22:22.777Z,92.86
2023-04-20T01:24:49.258Z,93.30
2023-04-20T01:27:15.895Z,92.94
2023-04-20T01:29:43.297Z,93.85
2023-04-20T01:32:10.441Z,93.16
2023-04-20T01:34:37.060Z,94.54
2023-04-20T01:37:06.149Z,93.10
2023-04-20T01:39:34.857Z,93.55
2023-04-20T01:42:01.379Z,93.58
2023-04-20T01:44:28.011Z,94.63
2023-04-20T01:46:54.505Z,94.16
2023-04-20T01:49:21.038Z,93.73
2023-04-20T01:51:53.579Z,93.71
2023-04-20T01:54:21.404Z,93.86
2023-04-20T01:56:53.779Z,94.24
2023-04-20T01:59:22.221Z,93.28
2023-04-20T02:01:54.522Z,94.57
2023-04-20T02:04:21.406Z,95.26
2023-04-20T02:07:00.202Z,93.73
2023-04-20T02:09:26.748Z,94.02
2023-04-20T02:11:58.148Z,93.92
2023-04-20T02:14:24.810Z,94.21
2023-04-20T02:16:51.538Z,93.56
2023-04-20T02:19:20.850Z,93.64
2023-04-20T02:21:53.154Z,94.19
2023-04-20T02:24:21.726Z,94.93
2023-04-20T02:26:54.020Z,94.08
2023-04-20T02:29:24.112Z,94.43
2023-04-20T02:31:53.769Z,94.43
2023-04-20T02:34:21.861Z,94.29
2023-04-20T02:36:52.070Z,95.52
2023-04-20T02:39:20.879Z,94.86
2023-04-20T02:41:53.200Z,94.55
2023-04-20T02:44:20.216Z,94.56
2023-04-20T02:46:55.740Z,95.15
2023-04-20T02:49:24.467Z,94.10
2023-04-20T02:51:51.237Z,95.27
2023-04-20T02:54:17.753Z,95.22
2023-04-20T02:56:44.264Z,95.22
2023-04-20T02:59:10.661Z,95.44
2023-04-20T03:01:42.969Z,95.13
2023-04-20T03:04:15.013Z,94.88
2023-04-20T03:06:51.687Z,95.29
2023-04-20T03:09:24.080Z,95.85
2023-04-20T03:12:06.466Z,94.92
2023-04-20T03:14:58.047Z,95.15
2023-04-20T03:17:42.968Z,95.94
2023-04-20T03:20:12.137Z,95.70
2023-04-20T03:22:38.652Z,95.48
2023-04-20T03:25:06.967Z,95.19
2023-04-20T03:28:02.714Z,95.26
2023-04-20T03:30:29.794Z,95.63
2023-04-20T03:33:04.100Z,95.46
2023-04-20T03:35:31.966Z,95.53
2023-04-20T03:37:58.556Z,94.79
2023-04-20T03:40:25.117Z,95.10
2023-04-20T03:42:52.989Z,95.76
2023-04-20T03:45:19.431Z,94.77
2023-04-20T03:47:45.896Z,95.16
2023-04-20T03:50:12.408Z,94.51
2023-04-20T03:52:40.825Z,95.81
2023-04-20T03:55:09.846Z,94.94
2023-04-20T03:57:39.709Z,94.66
2023-04-20T04:00:08.230Z,94.96
2023-04-20T04:02:44.553Z,93.97
2023-04-20T04:05:11.476Z,94.48
2023-04-20T04:07:37.971Z,93.73
2023-04-20T04:10:07.273Z,93.79
2023-04-20T04:12:33.911Z,94.66
2023-04-20T04:15:00.331Z,93.92
2023-04-20T04:17:30.395Z,94.10
2023-04-20T04:19:57.216Z,94.03
2023-04-20T04:22:23.969Z,94.22
2023-04-20T04:25:12.037Z,93.94
2023-04-20T04:27:38.909Z,94.38
2023-04-20T04:30:06.900Z,93.94
2023-04-20T04:32:33.894Z,94.07
2023-04-20T04:35:00.515Z,94.02
2023-04-20T04:37:27.690Z,93.51
2023-04-20T04:39:55.572Z,94.23
2023-04-20T04:42:34.191Z,93.51
2023-04-20T04:45:02.864Z,93.86
2023-04-20T04:47:34.449Z,94.16
2023-04-20T04:50:01.114Z,93.55
2023-04-20T04:52:28.599Z,93.98
2023-04-20T04:54:55.127Z,93.67
2023-04-20T04:57:21.584Z,94.20
2023-04-20T04:59:49.330Z,94.94
2023-04-20T05:02:15.942Z,94.38
2023-04-20T05:04:42.560Z,94.52
2023-04-20T05:07:09.109Z,93.88
2023-04-20T05:09:35.546Z,93.83
2023-04-20T05:12:02.091Z,92.87
2023-04-20T05:14:28.614Z,92.96
2023-04-20T05:16:56.762Z,93.31
2023-04-20T05:19:23.290Z,93.57
2023-04-20T05:21:49.925Z,93.12
2023-04-20T05:24:19.285Z,92.64
2023-04-20T05:26:45.973Z,92.55
2023-04-20T05:29:12.435Z,92.06
2023-04-20T05:31:38.954Z,92.85
2023-04-20T05:34:06.718Z,92.30
2023-04-20T05:36:33.279Z,93.44
2023-04-20T05:38:59.844Z,93.37
2023-04-20T05:41:26.318Z,93.11
2023-04-20T05:43:52.721Z,93.67
2023-04-20T05:46:19.227Z,93.07
2023-04-20T05:48:45.676Z,93.24
2023-04-20T05:51:13.522Z,93.68
2023-04-20T05:53:39.997Z,92.25
2023-04-20T05:56:07.406Z,92.38
2023-04-20T05:58:34.970Z,92.47
2023-04-20T06:01:01.417Z,91.72
2023-04-20T06:03:27.930Z,91.46
2023-04-20T06:05:54.518Z,91.33
2023-04-20T06:08:22.300Z,91.55
2023-04-20T06:10:48.752Z,91.17
2023-04-20T06:13:15.199Z,91.20
2023-04-20T06:15:41.724Z,91.53
2023-04-20T06:18:08.227Z,89.33
2023-04-20T06:20:34.641Z,90.10
2023-04-20T06:23:01.057Z,89.63
2023-04-20T06:25:28.880Z,89.83
2023-04-20T06:27:55.255Z,90.02
2023-04-20T06:30:21.955Z,89.28
2023-04-20T06:32:48.382Z,88.42
2023-04-20T06:35:14.968Z,86.63
2023-04-20T06:37:41.357Z,86.85
2023-04-20T06:40:08.820Z,86.83
2023-04-20T06:42:36.791Z,86.87
2023-04-20T06:45:03.876Z,85.00
2023-04-20T06:47:30.350Z,85.91
2023-04-20T06:49:56.805Z,86.23
2023-04-20T06:52:23.257Z,86.07
2023-04-20T06:54:49.707Z,85.54
2023-04-20T06:57:16.185Z,84.23
2023-04-20T06:59:43.964Z,84.13
2023-04-20T07:02:10.578Z,84.42
2023-04-20T07:04:37.148Z,84.62
2023-04-20T07:07:03.608Z,84.88
2023-04-20T07:09:30.076Z,86.92
2023-04-20T07:11:56.527Z,83.79
2023-04-20T07:14:22.997Z,85.35
2023-04-20T07:16:53.642Z,83.44
2023-04-20T07:19:20.473Z,82.97
2023-04-20T07:21:46.924Z,81.90
2023-04-20T07:24:13.349Z,83.83
2023-04-20T07:26:39.780Z,82.24
2023-04-20T07:29:06.223Z,81.35
2023-04-20T07:31:34.191Z,78.88
2023-04-20T07:34:03.177Z,79.50
2023-04-20T07:36:29.726Z,78.05
2023-04-20T07:38:56.143Z,76.87
2023-04-20T07:41:22.583Z,76.29
2023-04-20T07:43:48.952Z,73.96
2023-04-20T07:46:20.398Z,73.21
2023-04-20T07:48:47.055Z,72.66
2023-04-20T07:51:14.876Z,74.04
2023-04-20T07:53:41.841Z,73.88
2023-04-20T07:56:08.264Z,73.68
2023-04-20T07:58:34.717Z,75.10
2023-04-20T08:01:01.180Z,75.76
2023-04-20T08:03:27.756Z,73.88
2023-04-20T08:05:54.374Z,72.91
2023-04-20T08:08:22.100Z,73.13
2023-04-20T08:10:48.521Z,72.87
2023-04-20T08:13:14.974Z,73.33
2023-04-20T08:15:41.407Z,72.29
2023-04-20T08:18:07.990Z,71.18
2023-04-20T08:23:06.031Z,71.09
2023-04-20T08:25:33.832Z,69.00
2023-04-20T08:28:00.250Z,67.70
2023-04-20T08:30:27.040Z,64.68
2023-04-20T08:32:53.617Z,62.36
2023-04-20T08:35:20.115Z,65.52
2023-04-20T08:37:46.800Z,61.70
2023-04-20T08:40:13.495Z,61.36
2023-04-20T08:42:41.280Z,61.96
2023-04-20T08:45:08.556Z,59.09
2023-04-20T08:47:36.729Z,59.15
2023-04-20T08:50:04.268Z,58.93
2023-04-20T08:52:31.302Z,57.34
2023-04-20T08:55:00.906Z,59.07
2023-04-20T08:57:27.458Z,58.06
2023-04-20T08:59:56.052Z,59.36
2023-04-20T09:02:22.845Z,58.78
2023-04-20T09:04:49.728Z,61.25
2023-04-20T09:07:20.388Z,61.57
2023-04-20T09:09:56.943Z,62.93
2023-04-20T09:12:23.917Z,62.79
2023-04-20T09:14:51.031Z,65.30
2023-04-20T09:17:31.234Z,63.74
2023-04-20T09:19:57.990Z,62.87
2023-04-20T09:22:29.966Z,61.57
2023-04-20T09:24:56.732Z,56.99
2023-04-20T09:27:23.172Z,58.48
2023-04-20T09:29:57.433Z,56.24
2023-04-20T09:32:26.808Z,56.98
2023-04-20T09:34:53.404Z,56.45
2023-04-20T09:37:19.922Z,55.24
2023-04-20T09:39:46.799Z,54.63
2023-04-20T09:42:15.409Z,53.90
2023-04-20T09:44:42.465Z,56.21
2023-04-20T09:47:16.669Z,55.51
2023-04-20T09:49:45.877Z,56.27
2023-04-20T09:52:15.915Z,54.02
2023-04-20T09:54:42.545Z,55.15
2023-04-20T09:57:09.607Z,53.58
2023-04-20T09:59:36.277Z,53.93
2023-04-20T10:02:07.261Z,54.03
2023-04-20T10:04:33.852Z,58.02
2023-04-20T10:07:01.760Z,58.61
2023-04-20T10:09:28.152Z,60.41
2023-04-20T10:12:05.636Z,60.83
2023-04-20T10:14:32.053Z,59.53
2023-04-20T10:17:00.347Z,58.79
2023-04-20T10:19:36.759Z,58.29
2023-04-20T10:22:04.565Z,58.17
2023-04-20T10:24:31.317Z,58.57
2023-04-20T10:26:59.034Z,58.42
2023-04-20T10:29:26.366Z,57.12
2023-04-20T10:31:53.491Z,56.43
2023-04-20T10:34:29.949Z,56.16
2023-04-20T10:37:08.510Z,55.11
2023-04-20T10:39:35.247Z,55.78
2023-04-20T10:42:01.707Z,56.11
2023-04-20T10:44:28.144Z,56.22
2023-04-20T10:46:55.365Z,54.56
2023-04-20T10:49:26.069Z,53.89
2023-04-20T10:51:55.476Z,54.84
2023-04-20T10:54:23.460Z,56.24
2023-04-20T10:56:52.185Z,59.87
2023-04-20T10:59:20.628Z,57.73
2023-04-20T11:01:48.086Z,57.99
2023-04-20T11:04:17.804Z,58.48
2023-04-20T11:06:47.025Z,57.79
2023-04-20T11:09:18.120Z,60.22
2023-04-20T11:11:46.233Z,60.57
2023-04-20T11:14:12.904Z,61.44
2023-04-20T11:19:08.921Z,64.06
2023-04-20T11:21:36.742Z,64.17
2023-04-20T11:24:03.938Z,62.20
2023-04-20T11:26:34.992Z,64.21
2023-04-20T11:29:02.859Z,64.70
2023-04-20T11:31:29.480Z,62.48
2023-04-20T11:33:56.027Z,64.81
2023-04-20T11:36:24.015Z,66.84
2023-04-20T11:38:50.787Z,67.14
2023-04-20T11:41:17.645Z,64.70
2023-04-20T11:43:44.492Z,65.03
2023-04-20T11:46:16.884Z,65.45
2023-04-20T11:48:43.625Z,68.45
2023-04-20T11:51:10.125Z,67.41
2023-04-20T11:53:36.693Z,68.74
2023-04-20T11:56:03.491Z,68.39
2023-04-20T11:58:30.043Z,69.52
2023-04-20T12:00:56.468Z,69.04
2023-04-20T12:03:24.479Z,68.22
2023-04-20T12:05:51.235Z,68.85
2023-04-20T12:08:17.774Z,67.08
2023-04-20T12:10:44.182Z,68.34
2023-04-20T12:13:10.641Z,67.46
2023-04-20T12:15:37.124Z,66.14
2023-04-20T12:18:03.587Z,66.11
2023-04-20T12:20:31.414Z,65.92
2023-04-20T12:22:59.055Z,66.92
2023-04-20T12:25:25.834Z,67.04
2023-04-20T12:27:52.258Z,67.59
2023-04-20T12:30:18.719Z,68.23
2023-04-20T12:32:45.261Z,67.83
2023-04-20T12:35:11.674Z,68.90
2023-04-20T12:37:39.416Z,66.15
2023-04-20T12:40:07.424Z,66.91
2023-04-20T12:42:33.861Z,66.71
2023-04-20T12:45:00.279Z,66.92
2023-04-20T12:47:26.778Z,68.26
2023-04-20T12:49:53.251Z,67.73
2023-04-20T12:52:19.709Z,69.33
2023-04-20T12:54:47.401Z,70.20
2023-04-20T12:57:13.848Z,69.93
2023-04-20T12:59:40.322Z,70.56
2023-04-20T13:02:06.918Z,71.14
2023-04-20T13:04:33.477Z,71.08
2023-04-20T13:06:59.916Z,70.86
2023-04-20T13:09:26.565Z,71.84
2023-04-20T13:11:54.313Z,72.06
2023-04-20T13:14:21.036Z,70.94
2023-04-20T13:16:47.920Z,70.91
2023-04-20T13:19:14.435Z,72.18
2023-04-20T13:21:40.937Z,72.41
2023-04-20T13:24:07.681Z,73.13
2023-04-20T13:26:34.240Z,73.83
2023-04-20T13:29:01.974Z,73.64
2023-04-20T13:31:28.563Z,73.73
2023-04-20T13:33:55.042Z,74.90
2023-04-20T13:36:21.734Z,74.91
2023-04-20T13:38:48.133Z,75.22
2023-04-20T13:41:14.606Z,75.16
2023-04-20T13:43:43.321Z,75.88
2023-04-20T13:46:13.393Z,75.81
2023-04-20T13:48:39.822Z,75.79
2023-04-20T13:51:06.310Z,75.25
2023-04-20T13:53:32.832Z,75.61
2023-04-20T13:55:59.328Z,74.96
2023-04-20T13:58:27.075Z,76.77
2023-04-20T14:00:53.513Z,75.68
2023-04-20T14:03:21.511Z,76.35
2023-04-20T14:05:49.302Z,76.22
2023-04-20T14:08:17.699Z,75.95
2023-04-20T14:10:44.170Z,76.48
2023-04-20T14:13:10.598Z,75.10
2023-04-20T14:15:37.084Z,75.79
2023-04-20T14:18:03.693Z,75.75
2023-04-20T14:20:31.544Z,76.53
2023-04-20T14:22:58.071Z,76.37
2023-04-20T14:25:24.547Z,76.54
2023-04-20T14:27:50.989Z,75.00
2023-04-20T14:30:17.624Z,75.21
2023-04-20T14:32:53.946Z,76.07
2023-04-20T14:35:20.566Z,77.25
2023-04-20T14:37:48.396Z,76.21
2023-04-20T14:40:14.954Z,76.37
2023-04-20T14:42:41.459Z,75.94
2023-04-20T14:45:09.434Z,78.26
2023-04-20T14:47:35.883Z,76.79
2023-04-20T14:50:02.399Z,76.70
2023-04-20T14:52:29.082Z,77.00
2023-04-20T14:54:56.831Z,77.36
2023-04-20T14:57:23.280Z,78.11
2023-04-20T14:59:49.720Z,76.87
2023-04-20T15:02:16.242Z,77.48
2023-04-20T15:04:43.070Z,76.90
2023-04-20T15:07:11.236Z,76.75
2023-04-20T15:09:38.748Z,76.99
2023-04-20T15:12:06.597Z,76.26
2023-04-20T15:14:33.024Z,76.23
2023-04-20T15:16:59.504Z,75.52
2023-04-20T15:19:26.032Z,75.28
2023-04-20T15:21:52.429Z,75.28
2023-04-20T15:24:19.112Z,74.31
2023-04-20T15:26:47.705Z,74.90
2023-04-20T15:29:15.513Z,74.57
2023-04-20T15:31:42.066Z,75.36
2023-04-20T15:34:08.711Z,74.84
2023-04-20T15:36:35.169Z,74.74
2023-04-20T15:39:01.597Z,75.15
2023-04-20T15:41:28.025Z,74.90
2023-04-20T15:43:54.395Z,73.98
2023-04-20T15:46:22.296Z,75.31
2023-04-20T15:48:48.795Z,74.13
2023-04-20T15:51:15.214Z,74.31
2023-04-20T15:53:41.649Z,73.97
2023-04-20T15:56:08.171Z,73.63
2023-04-20T15:58:34.602Z,73.57
2023-04-20T16:01:01.065Z,73.40
2023-04-20T16:03:28.989Z,74.31
2023-04-20T16:05:55.611Z,73.97
2023-04-20T16:08:22.062Z,74.14
2023-04-20T16:10:50.952Z,73.59
2023-04-20T16:13:17.394Z,74.06
2023-04-20T16:15:43.867Z,73.80
2023-04-20T16:18:10.354Z,74.03
2023-04-20T16:20:39.391Z,73.77
2023-04-20T16:23:07.208Z,74.47
2023-04-20T16:25:33.598Z,74.49
2023-04-20T16:28:00.038Z,75.56
2023-04-20T16:30:26.457Z,75.24
2023-04-20T16:32:52.994Z,75.86
2023-04-20T16:35:19.608Z,75.40
2023-04-20T16:37:47.371Z,76.47
2023-04-20T16:40:13.822Z,77.32
2023-04-20T16:42:40.241Z,77.37
2023-04-20T16:45:08.001Z,76.87
2023-04-20T16:47:34.519Z,77.31
2023-04-20T16:50:00.971Z,77.88
2023-04-20T16:52:27.455Z,77.89
2023-04-20T16:54:55.202Z,78.24
2023-04-20T16:57:21.601Z,78.53
2023-04-20T16:59:47.979Z,79.03
2023-04-20T17:02:14.420Z,79.10
2023-04-20T17:04:40.867Z,79.23
2023-04-20T17:07:07.221Z,80.41
2023-04-20T17:09:33.708Z,79.94
2023-04-20T17:12:01.410Z,80.60
2023-04-20T17:14:27.905Z,80.33
2023-04-20T17:16:54.504Z,80.27
2023-04-20T17:19:20.950Z,82.00
2023-04-20T17:21:47.467Z,81.89
2023-04-20T17:24:13.853Z,81.50
2023-04-20T17:26:40.462Z,81.86
2023-04-20T17:29:08.154Z,82.00
2023-04-20T17:31:34.578Z,81.71
2023-04-20T17:34:01.092Z,82.45
2023-04-20T17:36:27.545Z,82.29
2023-04-20T17:38:54.100Z,83.29
2023-04-20T17:41:20.552Z,83.35
2023-04-20T17:43:46.949Z,84.00
2023-04-20T17:46:14.696Z,84.80
2023-04-20T17:48:41.142Z,84.17
2023-04-20T17:51:07.619Z,84.13
2023-04-20T17:53:34.054Z,84.75
2023-04-20T17:56:00.607Z,85.43
2023-04-20T17:58:26.994Z,84.93
2023-04-20T18:00:53.426Z,85.10
2023-04-20T18:03:21.262Z,85.58
2023-04-20T18:05:47.809Z,86.13
2023-04-20T18:08:14.247Z,86.26
2023-04-20T18:10:40.865Z,86.25
2023-04-20T18:13:07.233Z,85.75
2023-04-20T18:15:33.696Z,86.24
2023-04-20T18:18:00.294Z,87.22
2023-04-20T18:20:29.453Z,88.24
2023-04-20T18:22:56.872Z,87.96
2023-04-20T18:25:23.614Z,87.64
2023-04-20T18:27:50.089Z,87.76
2023-04-20T18:30:18.370Z,87.64
2023-04-20T18:32:44.870Z,87.99
2023-04-20T18:35:14.036Z,88.01
2023-04-20T18:37:45.057Z,88.35
2023-04-20T18:40:15.426Z,88.34
2023-04-20T18:42:42.697Z,88.80
2023-04-20T18:45:09.930Z,89.38
2023-04-20T18:47:36.548Z,89.05
2023-04-20T18:50:03.144Z,89.26
2023-04-20T18:52:32.712Z,88.88
2023-04-20T18:55:05.527Z,89.56
2023-04-20T18:57:31.936Z,89.89
2023-04-20T18:59:58.305Z,90.32
2023-04-20T19:02:28.758Z,89.31
2023-04-20T19:04:55.293Z,90.51
2023-04-20T19:07:23.594Z,89.71
2023-04-20T19:09:50.131Z,89.92
2023-04-20T19:12:23.796Z,89.97
2023-04-20T19:14:53.270Z,90.36
2023-04-20T19:17:26.026Z,90.85
2023-04-20T19:19:55.365Z,90.54
2023-04-20T19:22:23.624Z,90.56
2023-04-20T19:24:55.236Z,90.93
2023-04-20T19:27:24.592Z,91.42
2023-04-20T19:29:54.131Z,91.38
2023-04-20T19:32:22.114Z,90.60
2023-04-20T19:34:55.307Z,91.10
2023-04-20T19:37:24.755Z,91.10
2023-04-20T19:39:51.813Z,90.72
2023-04-20T19:42:25.575Z,90.78
2023-04-20T19:44:55.253Z,91.34
2023-04-20T19:47:24.595Z,91.10
2023-04-20T19:49:53.325Z,91.22
2023-04-20T19:52:23.738Z,91.20
2023-04-20T19:54:50.191Z,90.45
2023-04-20T19:57:19.706Z,90.85
2023-04-20T19:59:54.771Z,91.07
2023-04-20T20:02:24.512Z,91.09
2023-04-20T20:04:53.085Z,91.39
2023-04-20T20:07:23.646Z,90.70
2023-04-20T20:09:54.462Z,90.25
2023-04-20T20:12:26.404Z,90.08
2023-04-20T20:14:57.425Z,90.99
2023-04-20T20:17:26.968Z,90.48
2023-04-20T20:19:56.101Z,90.42
2023-04-20T20:22:22.669Z,90.87
2023-04-20T20:24:52.164Z,90.25
2023-04-20T20:27:21.712Z,90.44
2023-04-20T20:29:52.639Z,90.67
2023-04-20T20:32:25.695Z,90.65
2023-04-20T20:34:52.087Z,90.61
2023-04-20T20:37:20.332Z,90.90
2023-04-20T20:39:46.811Z,90.82
2023-04-20T20:42:13.192Z,90.54
2023-04-20T20:44:39.630Z,91.28
2023-04-20T20:47:06.107Z,91.32
2023-04-20T20:49:33.945Z,91.04
2023-04-20T20:54:39.660Z,90.72
2023-04-20T20:57:06.174Z,90.56
2023-04-20T20:59:32.607Z,90.62
2023-04-20T21:01:59.165Z,89.95
2023-04-20T21:04:25.716Z,90.01
2023-04-20T21:06:53.435Z,90.03
2023-04-20T21:09:20.109Z,89.68
2023-04-20T21:11:46.762Z,89.69
2023-04-20T21:14:13.259Z,90.25
2023-04-20T21:16:39.715Z,89.06
2023-04-20T21:19:06.229Z,88.84
2023-04-20T21:21:34.182Z,88.34
2023-04-20T21:24:02.187Z,88.52
2023-04-20T21:26:28.601Z,88.21
2023-04-20T21:28:55.131Z,88.22
2023-04-20T21:31:23.456Z,88.17
2023-04-20T21:33:49.983Z,88.67
2023-04-20T21:36:16.470Z,88.01
2023-04-20T21:38:42.990Z,88.21
2023-04-20T21:41:10.814Z,88.17
2023-04-20T21:43:37.212Z,88.24
2023-04-20T21:46:03.711Z,88.59
2023-04-20T21:48:30.221Z,88.38
2023-04-20T21:50:56.617Z,88.33
2023-04-20T21:53:23.045Z,88.44
2023-04-20T21:55:49.546Z,88.25
2023-04-20T21:58:17.404Z,88.55
2023-04-20T22:00:43.821Z,88.39
2023-04-20T22:03:10.401Z,88.43
2023-04-20T22:05:36.906Z,88.33
2023-04-20T22:08:03.489Z,88.09
2023-04-20T22:10:30.193Z,88.66
2023-04-20T22:12:56.616Z,88.87
2023-04-20T22:15:24.713Z,88.82
2023-04-20T22:17:53.017Z,89.27
2023-04-20T22:20:19.522Z,89.16
2023-04-20T22:22:46.688Z,89.19
2023-04-20T22:25:13.193Z,89.56
2023-04-20T22:27:39.642Z,89.31
2023-04-20T22:30:06.991Z,89.70
2023-04-20T22:32:34.849Z,89.49
2023-04-20T22:35:01.371Z,89.63
2023-04-20T22:37:27.779Z,89.82
2023-04-20T22:39:54.205Z,89.93
2023-04-20T22:42:20.613Z,89.74
2023-04-20T22:44:47.044Z,89.66
2023-04-20T22:47:13.663Z,89.73
2023-04-20T22:49:41.545Z,89.93
2023-04-20T22:52:07.949Z,90.39
2023-04-20T22:54:34.444Z,90.68
2023-04-20T22:57:00.859Z,90.18
2023-04-20T22:59:27.281Z,90.01
2023-04-20T23:01:53.720Z,90.83
2023-04-20T23:04:20.335Z,90.69
2023-04-20T23:06:48.106Z,90.49
2023-04-20T23:09:14.585Z,90.48
2023-04-20T23:11:41.001Z,90.65
2023-04-20T23:14:08.338Z,90.50
2023-04-20T23:16:35.491Z,90.34
2023-04-20T23:19:02.018Z,90.11
2023-04-20T23:21:28.802Z,90.37
2023-04-20T23:23:56.665Z,90.81
2023-04-20T23:26:23.231Z,90.24
2023-04-20T23:28:50.456Z,91.00
2023-04-20T23:31:16.846Z,90.95
2023-04-20T23:33:43.275Z,91.03
2023-04-20T23:36:09.896Z,91.36
2023-04-20T23:38:36.289Z,90.88
2023-04-20T23:41:08.999Z,90.59
2023-04-20T23:43:35.438Z,90.68
2023-04-20T23:46:01.880Z,91.14
2023-04-20T23:48:28.370Z,91.21
2023-04-20T23:50:54.771Z,91.35
2023-04-20T23:53:21.200Z,91.42
2023-04-20T23:55:47.608Z,91.88
2023-04-20T23:58:15.353Z,91.92
